sensor_id;sensor_type;location;lat;lon;timestamp;P1;durP1;ratioP1;P2;durP2;ratioP2
21032;SDS011;10675;47.976;7.824;2023-02-07T00:01:07;4.67;;;2.60;;
21032;SDS011;10675;47.976;7.824;2023-02-07T00:03:34;3.80;;;2.17;;
21032;SDS011;10675;47.976;7.824;2023-02-07T00:06:04;2.50;;;2.30;;
21032;SDS011;10675;47.976;7.824;2023-02-07T00:08:35;4.43;;;2.73;;
21032;SDS011;10675;47.976;7.824;2023-02-07T00:11:03;3.97;;;2.40;;
21032;SDS011;10675;47.976;7.824;2023-02-07T00:13:33;3.83;;;2.17;;
21032;SDS011;10675;47.976;7.824;2023-02-07T00:15:59;2.90;;;1.80;;
21032;SDS011;10675;47.976;7.824;2023-02-07T00:18:26;2.00;;;1.70;;
21032;SDS011;10675;47.976;7.824;2023-02-07T00:20:58;2.13;;;1.53;;
21032;SDS011;10675;47.976;7.824;2023-02-07T00:23:25;2.50;;;1.70;;
21032;SDS011;10675;47.976;7.824;2023-02-07T00:25:50;1.57;;;1.43;;
21032;SDS011;10675;47.976;7.824;2023-02-07T00:28:16;1.87;;;1.53;;
21032;SDS011;10675;47.976;7.824;2023-02-07T00:30:41;2.20;;;1.57;;
21032;SDS011;10675;47.976;7.824;2023-02-07T00:33:07;2.00;;;1.50;;
21032;SDS011;10675;47.976;7.824;2023-02-07T00:35:32;2.53;;;1.60;;
21032;SDS011;10675;47.976;7.824;2023-02-07T00:37:58;2.17;;;1.77;;
21032;SDS011;10675;47.976;7.824;2023-02-07T00:40:23;1.77;;;1.50;;
21032;SDS011;10675;47.976;7.824;2023-02-07T00:42:49;1.67;;;1.50;;
21032;SDS011;10675;47.976;7.824;2023-02-07T00:45:14;1.90;;;1.70;;
21032;SDS011;10675;47.976;7.824;2023-02-07T00:47:40;2.33;;;2.00;;
21032;SDS011;10675;47.976;7.824;2023-02-07T00:50:05;1.73;;;1.43;;
21032;SDS011;10675;47.976;7.824;2023-02-07T00:52:31;2.40;;;1.60;;
21032;SDS011;10675;47.976;7.824;2023-02-07T00:54:57;1.93;;;1.57;;
21032;SDS011;10675;47.976;7.824;2023-02-07T00:57:22;3.07;;;1.60;;
21032;SDS011;10675;47.976;7.824;2023-02-07T00:59:48;3.47;;;1.60;;
21032;SDS011;10675;47.976;7.824;2023-02-07T01:02:13;2.33;;;1.43;;
21032;SDS011;10675;47.976;7.824;2023-02-07T01:04:39;2.87;;;1.67;;
21032;SDS011;10675;47.976;7.824;2023-02-07T01:07:04;2.30;;;1.50;;
21032;SDS011;10675;47.976;7.824;2023-02-07T01:09:30;2.50;;;1.80;;
21032;SDS011;10675;47.976;7.824;2023-02-07T01:11:55;1.70;;;1.60;;
21032;SDS011;10675;47.976;7.824;2023-02-07T01:14:21;1.60;;;1.50;;
21032;SDS011;10675;47.976;7.824;2023-02-07T01:16:46;1.77;;;1.50;;
21032;SDS011;10675;47.976;7.824;2023-02-07T01:19:13;3.40;;;1.80;;
21032;SDS011;10675;47.976;7.824;2023-02-07T01:21:38;1.50;;;1.40;;
21032;SDS011;10675;47.976;7.824;2023-02-07T01:24:04;1.80;;;1.57;;
21032;SDS011;10675;47.976;7.824;2023-02-07T01:26:30;1.97;;;1.47;;
21032;SDS011;10675;47.976;7.824;2023-02-07T01:28:56;3.70;;;2.00;;
21032;SDS011;10675;47.976;7.824;2023-02-07T01:31:21;2.53;;;2.00;;
21032;SDS011;10675;47.976;7.824;2023-02-07T01:33:51;3.23;;;2.40;;
21032;SDS011;10675;47.976;7.824;2023-02-07T01:36:18;3.30;;;2.10;;
21032;SDS011;10675;47.976;7.824;2023-02-07T01:38:44;5.07;;;2.20;;
21032;SDS011;10675;47.976;7.824;2023-02-07T01:41:09;2.90;;;1.87;;
21032;SDS011;10675;47.976;7.824;2023-02-07T01:46:19;3.23;;;1.93;;
21032;SDS011;10675;47.976;7.824;2023-02-07T01:48:44;3.37;;;2.37;;
21032;SDS011;10675;47.976;7.824;2023-02-07T01:51:10;2.77;;;2.20;;
21032;SDS011;10675;47.976;7.824;2023-02-07T01:53:36;2.50;;;1.97;;
21032;SDS011;10675;47.976;7.824;2023-02-07T01:56:03;2.60;;;2.00;;
21032;SDS011;10675;47.976;7.824;2023-02-07T01:58:33;3.27;;;2.13;;
21032;SDS011;10675;47.976;7.824;2023-02-07T02:01:03;3.07;;;1.70;;
21032;SDS011;10675;47.976;7.824;2023-02-07T02:03:34;2.27;;;1.93;;
21032;SDS011;10675;47.976;7.824;2023-02-07T02:06:04;2.97;;;2.50;;
21032;SDS011;10675;47.976;7.824;2023-02-07T02:08:30;3.63;;;1.97;;
21032;SDS011;10675;47.976;7.824;2023-02-07T02:11:00;3.27;;;1.83;;
21032;SDS011;10675;47.976;7.824;2023-02-07T02:16:12;2.60;;;1.80;;
21032;SDS011;10675;47.976;7.824;2023-02-07T02:24:32;2.10;;;1.90;;
21032;SDS011;10675;47.976;7.824;2023-02-07T02:35:30;2.73;;;2.17;;
21032;SDS011;10675;47.976;7.824;2023-02-07T02:38:13;2.70;;;1.80;;
21032;SDS011;10675;47.976;7.824;2023-02-07T02:41:31;3.33;;;2.30;;
21032;SDS011;10675;47.976;7.824;2023-02-07T02:43:56;3.53;;;2.27;;
21032;SDS011;10675;47.976;7.824;2023-02-07T02:46:26;4.97;;;2.87;;
21032;SDS011;10675;47.976;7.824;2023-02-07T02:48:55;2.43;;;1.97;;
21032;SDS011;10675;47.976;7.824;2023-02-07T02:51:22;2.53;;;2.10;;
21032;SDS011;10675;47.976;7.824;2023-02-07T02:53:51;1.87;;;1.63;;
21032;SDS011;10675;47.976;7.824;2023-02-07T03:02:21;2.60;;;2.00;;
21032;SDS011;10675;47.976;7.824;2023-02-07T03:05:02;3.23;;;2.13;;
21032;SDS011;10675;47.976;7.824;2023-02-07T03:08:51;2.03;;;1.63;;
21032;SDS011;10675;47.976;7.824;2023-02-07T03:13:34;4.17;;;1.83;;
21032;SDS011;10675;47.976;7.824;2023-02-07T03:18:56;3.87;;;2.10;;
21032;SDS011;10675;47.976;7.824;2023-02-07T03:21:38;2.53;;;2.20;;
21032;SDS011;10675;47.976;7.824;2023-02-07T03:24:19;2.20;;;1.97;;
21032;SDS011;10675;47.976;7.824;2023-02-07T03:26:48;4.77;;;2.03;;
21032;SDS011;10675;47.976;7.824;2023-02-07T03:29:16;8.57;;;3.07;;
21032;SDS011;10675;47.976;7.824;2023-02-07T03:31:46;2.97;;;2.03;;
21032;SDS011;10675;47.976;7.824;2023-02-07T03:34:14;3.27;;;2.57;;
21032;SDS011;10675;47.976;7.824;2023-02-07T03:36:59;4.17;;;2.20;;
21032;SDS011;10675;47.976;7.824;2023-02-07T03:39:31;2.43;;;2.00;;
21032;SDS011;10675;47.976;7.824;2023-02-07T03:41:58;2.60;;;2.40;;
21032;SDS011;10675;47.976;7.824;2023-02-07T03:44:27;2.40;;;2.07;;
21032;SDS011;10675;47.976;7.824;2023-02-07T03:46:55;3.50;;;2.00;;
21032;SDS011;10675;47.976;7.824;2023-02-07T03:49:21;2.83;;;2.40;;
21032;SDS011;10675;47.976;7.824;2023-02-07T03:51:46;8.00;;;2.53;;
21032;SDS011;10675;47.976;7.824;2023-02-07T03:54:12;2.13;;;1.87;;
21032;SDS011;10675;47.976;7.824;2023-02-07T03:56:38;3.10;;;2.30;;
21032;SDS011;10675;47.976;7.824;2023-02-07T03:59:04;2.73;;;2.17;;
21032;SDS011;10675;47.976;7.824;2023-02-07T04:01:30;9.03;;;2.53;;
21032;SDS011;10675;47.976;7.824;2023-02-07T04:03:55;4.17;;;2.47;;
21032;SDS011;10675;47.976;7.824;2023-02-07T04:06:21;2.80;;;2.50;;
21032;SDS011;10675;47.976;7.824;2023-02-07T04:08:47;2.50;;;2.30;;
21032;SDS011;10675;47.976;7.824;2023-02-07T04:11:13;3.13;;;2.33;;
21032;SDS011;10675;47.976;7.824;2023-02-07T04:13:38;2.90;;;2.23;;
21032;SDS011;10675;47.976;7.824;2023-02-07T04:16:04;3.27;;;2.40;;
21032;SDS011;10675;47.976;7.824;2023-02-07T04:18:30;2.70;;;2.20;;
21032;SDS011;10675;47.976;7.824;2023-02-07T04:21:03;3.77;;;2.47;;
21032;SDS011;10675;47.976;7.824;2023-02-07T04:23:30;4.50;;;2.17;;
21032;SDS011;10675;47.976;7.824;2023-02-07T04:25:56;2.33;;;2.10;;
21032;SDS011;10675;47.976;7.824;2023-02-07T04:28:21;2.17;;;1.90;;
21032;SDS011;10675;47.976;7.824;2023-02-07T04:30:47;3.43;;;2.17;;
21032;SDS011;10675;47.976;7.824;2023-02-07T04:33:12;2.93;;;1.90;;
21032;SDS011;10675;47.976;7.824;2023-02-07T04:35:38;5.50;;;2.17;;
21032;SDS011;10675;47.976;7.824;2023-02-07T04:38:03;2.37;;;2.03;;
21032;SDS011;10675;47.976;7.824;2023-02-07T04:40:29;5.70;;;2.60;;
21032;SDS011;10675;47.976;7.824;2023-02-07T04:42:55;4.43;;;2.53;;
21032;SDS011;10675;47.976;7.824;2023-02-07T04:45:20;3.73;;;2.80;;
21032;SDS011;10675;47.976;7.824;2023-02-07T04:47:45;4.27;;;2.17;;
21032;SDS011;10675;47.976;7.824;2023-02-07T04:50:11;3.70;;;2.63;;
21032;SDS011;10675;47.976;7.824;2023-02-07T04:52:36;4.73;;;2.60;;
21032;SDS011;10675;47.976;7.824;2023-02-07T04:55:04;6.90;;;2.67;;
21032;SDS011;10675;47.976;7.824;2023-02-07T04:57:30;5.77;;;2.80;;
21032;SDS011;10675;47.976;7.824;2023-02-07T04:59:55;5.17;;;2.77;;
21032;SDS011;10675;47.976;7.824;2023-02-07T05:02:21;3.97;;;2.70;;
21032;SDS011;10675;47.976;7.824;2023-02-07T05:04:46;3.07;;;2.50;;
21032;SDS011;10675;47.976;7.824;2023-02-07T05:07:12;2.97;;;2.40;;
21032;SDS011;10675;47.976;7.824;2023-02-07T05:09:37;4.10;;;3.10;;
21032;SDS011;10675;47.976;7.824;2023-02-07T05:12:03;3.00;;;2.23;;
21032;SDS011;10675;47.976;7.824;2023-02-07T05:14:28;4.17;;;2.30;;
21032;SDS011;10675;47.976;7.824;2023-02-07T05:16:54;3.53;;;2.33;;
21032;SDS011;10675;47.976;7.824;2023-02-07T05:19:19;3.50;;;2.37;;
21032;SDS011;10675;47.976;7.824;2023-02-07T05:21:45;3.20;;;2.53;;
21032;SDS011;10675;47.976;7.824;2023-02-07T05:24:10;3.17;;;2.47;;
21032;SDS011;10675;47.976;7.824;2023-02-07T05:26:36;3.07;;;2.60;;
21032;SDS011;10675;47.976;7.824;2023-02-07T05:29:01;3.47;;;2.30;;
21032;SDS011;10675;47.976;7.824;2023-02-07T05:31:27;7.40;;;2.57;;
21032;SDS011;10675;47.976;7.824;2023-02-07T05:34:11;2.93;;;2.50;;
21032;SDS011;10675;47.976;7.824;2023-02-07T05:36:37;3.17;;;2.07;;
21032;SDS011;10675;47.976;7.824;2023-02-07T05:39:02;6.07;;;2.60;;
21032;SDS011;10675;47.976;7.824;2023-02-07T05:41:28;3.47;;;3.03;;
21032;SDS011;10675;47.976;7.824;2023-02-07T05:43:53;4.13;;;2.67;;
21032;SDS011;10675;47.976;7.824;2023-02-07T05:46:19;3.33;;;2.50;;
21032;SDS011;10675;47.976;7.824;2023-02-07T05:48:44;4.87;;;2.53;;
21032;SDS011;10675;47.976;7.824;2023-02-07T05:51:10;3.07;;;2.53;;
21032;SDS011;10675;47.976;7.824;2023-02-07T05:53:35;6.00;;;3.20;;
21032;SDS011;10675;47.976;7.824;2023-02-07T05:56:01;3.60;;;2.80;;
21032;SDS011;10675;47.976;7.824;2023-02-07T05:58:26;6.23;;;2.83;;
21032;SDS011;10675;47.976;7.824;2023-02-07T06:00:53;4.17;;;3.03;;
21032;SDS011;10675;47.976;7.824;2023-02-07T06:03:19;3.50;;;2.33;;
21032;SDS011;10675;47.976;7.824;2023-02-07T06:05:44;4.40;;;2.77;;
21032;SDS011;10675;47.976;7.824;2023-02-07T06:08:10;5.23;;;2.63;;
21032;SDS011;10675;47.976;7.824;2023-02-07T06:10:35;3.13;;;2.27;;
21032;SDS011;10675;47.976;7.824;2023-02-07T06:13:01;3.50;;;2.57;;
21032;SDS011;10675;47.976;7.824;2023-02-07T06:15:27;2.40;;;2.07;;
21032;SDS011;10675;47.976;7.824;2023-02-07T06:17:52;3.87;;;2.70;;
21032;SDS011;10675;47.976;7.824;2023-02-07T06:20:18;4.10;;;2.50;;
21032;SDS011;10675;47.976;7.824;2023-02-07T06:22:43;4.13;;;2.80;;
21032;SDS011;10675;47.976;7.824;2023-02-07T06:25:09;2.50;;;2.30;;
21032;SDS011;10675;47.976;7.824;2023-02-07T06:27:36;4.33;;;3.00;;
21032;SDS011;10675;47.976;7.824;2023-02-07T06:30:03;5.13;;;3.10;;
21032;SDS011;10675;47.976;7.824;2023-02-07T06:32:28;3.30;;;2.33;;
21032;SDS011;10675;47.976;7.824;2023-02-07T06:34:54;3.63;;;2.27;;
21032;SDS011;10675;47.976;7.824;2023-02-07T06:37:19;2.20;;;1.87;;
21032;SDS011;10675;47.976;7.824;2023-02-07T06:39:45;4.10;;;2.67;;
21032;SDS011;10675;47.976;7.824;2023-02-07T06:42:10;3.10;;;2.10;;
21032;SDS011;10675;47.976;7.824;2023-02-07T06:44:36;3.20;;;2.33;;
21032;SDS011;10675;47.976;7.824;2023-02-07T06:47:02;3.37;;;2.50;;
21032;SDS011;10675;47.976;7.824;2023-02-07T06:49:28;3.30;;;2.40;;
21032;SDS011;10675;47.976;7.824;2023-02-07T06:51:53;4.23;;;2.60;;
21032;SDS011;10675;47.976;7.824;2023-02-07T06:54:19;3.30;;;2.30;;
21032;SDS011;10675;47.976;7.824;2023-02-07T06:56:44;4.33;;;2.37;;
21032;SDS011;10675;47.976;7.824;2023-02-07T06:59:10;2.23;;;2.00;;
21032;SDS011;10675;47.976;7.824;2023-02-07T07:01:35;4.60;;;2.33;;
21032;SDS011;10675;47.976;7.824;2023-02-07T07:04:01;2.53;;;2.33;;
21032;SDS011;10675;47.976;7.824;2023-02-07T07:06:26;4.40;;;2.67;;
21032;SDS011;10675;47.976;7.824;2023-02-07T07:08:52;5.73;;;2.43;;
21032;SDS011;10675;47.976;7.824;2023-02-07T07:11:18;4.13;;;2.70;;
21032;SDS011;10675;47.976;7.824;2023-02-07T07:13:43;4.03;;;2.90;;
21032;SDS011;10675;47.976;7.824;2023-02-07T07:16:09;4.53;;;3.07;;
21032;SDS011;10675;47.976;7.824;2023-02-07T07:18:35;3.27;;;2.97;;
21032;SDS011;10675;47.976;7.824;2023-02-07T07:21:02;9.90;;;3.10;;
21032;SDS011;10675;47.976;7.824;2023-02-07T07:23:28;6.50;;;3.10;;
21032;SDS011;10675;47.976;7.824;2023-02-07T07:25:53;4.23;;;3.10;;
21032;SDS011;10675;47.976;7.824;2023-02-07T07:28:19;5.83;;;3.57;;
21032;SDS011;10675;47.976;7.824;2023-02-07T07:30:44;5.10;;;2.97;;
21032;SDS011;10675;47.976;7.824;2023-02-07T07:33:10;7.37;;;3.17;;
21032;SDS011;10675;47.976;7.824;2023-02-07T07:35:35;7.70;;;3.33;;
21032;SDS011;10675;47.976;7.824;2023-02-07T07:38:01;6.57;;;3.43;;
21032;SDS011;10675;47.976;7.824;2023-02-07T07:40:27;3.87;;;2.87;;
21032;SDS011;10675;47.976;7.824;2023-02-07T07:42:52;5.87;;;3.00;;
21032;SDS011;10675;47.976;7.824;2023-02-07T07:45:18;7.37;;;3.70;;
21032;SDS011;10675;47.976;7.824;2023-02-07T07:47:44;7.47;;;4.00;;
21032;SDS011;10675;47.976;7.824;2023-02-07T07:50:09;6.23;;;3.50;;
21032;SDS011;10675;47.976;7.824;2023-02-07T07:52:35;5.47;;;3.23;;
21032;SDS011;10675;47.976;7.824;2023-02-07T07:55:01;6.97;;;3.90;;
21032;SDS011;10675;47.976;7.824;2023-02-07T07:57:26;6.73;;;3.50;;
21032;SDS011;10675;47.976;7.824;2023-02-07T07:59:55;7.07;;;3.43;;
21032;SDS011;10675;47.976;7.824;2023-02-07T08:02:20;3.77;;;2.87;;
21032;SDS011;10675;47.976;7.824;2023-02-07T08:04:46;6.63;;;3.30;;
21032;SDS011;10675;47.976;7.824;2023-02-07T08:07:12;3.47;;;2.70;;
21032;SDS011;10675;47.976;7.824;2023-02-07T08:09:38;3.03;;;2.47;;
21032;SDS011;10675;47.976;7.824;2023-02-07T08:12:03;4.87;;;3.20;;
21032;SDS011;10675;47.976;7.824;2023-02-07T08:14:29;4.33;;;3.10;;
21032;SDS011;10675;47.976;7.824;2023-02-07T08:16:55;6.60;;;3.73;;
21032;SDS011;10675;47.976;7.824;2023-02-07T08:19:20;5.90;;;3.93;;
21032;SDS011;10675;47.976;7.824;2023-02-07T08:21:46;5.50;;;3.63;;
21032;SDS011;10675;47.976;7.824;2023-02-07T08:24:11;8.27;;;4.00;;
21032;SDS011;10675;47.976;7.824;2023-02-07T08:26:37;8.43;;;4.60;;
21032;SDS011;10675;47.976;7.824;2023-02-07T08:29:02;5.97;;;4.13;;
21032;SDS011;10675;47.976;7.824;2023-02-07T08:31:28;8.13;;;4.30;;
21032;SDS011;10675;47.976;7.824;2023-02-07T08:33:53;7.43;;;4.40;;
21032;SDS011;10675;47.976;7.824;2023-02-07T08:36:19;7.17;;;3.73;;
21032;SDS011;10675;47.976;7.824;2023-02-07T08:38:44;11.10;;;3.93;;
21032;SDS011;10675;47.976;7.824;2023-02-07T08:41:10;4.80;;;3.27;;
21032;SDS011;10675;47.976;7.824;2023-02-07T08:43:35;6.43;;;3.67;;
21032;SDS011;10675;47.976;7.824;2023-02-07T08:46:02;6.10;;;3.60;;
21032;SDS011;10675;47.976;7.824;2023-02-07T08:48:27;5.57;;;3.70;;
21032;SDS011;10675;47.976;7.824;2023-02-07T08:50:53;6.90;;;3.40;;
21032;SDS011;10675;47.976;7.824;2023-02-07T08:53:19;6.17;;;3.23;;
21032;SDS011;10675;47.976;7.824;2023-02-07T08:55:45;5.57;;;3.00;;
21032;SDS011;10675;47.976;7.824;2023-02-07T08:58:10;6.63;;;3.40;;
21032;SDS011;10675;47.976;7.824;2023-02-07T09:00:36;6.87;;;3.20;;
21032;SDS011;10675;47.976;7.824;2023-02-07T09:03:02;4.40;;;3.07;;
21032;SDS011;10675;47.976;7.824;2023-02-07T09:05:28;5.57;;;3.00;;
21032;SDS011;10675;47.976;7.824;2023-02-07T09:07:57;9.17;;;3.27;;
21032;SDS011;10675;47.976;7.824;2023-02-07T09:10:23;6.07;;;3.63;;
21032;SDS011;10675;47.976;7.824;2023-02-07T09:12:49;5.77;;;2.90;;
21032;SDS011;10675;47.976;7.824;2023-02-07T09:15:14;5.83;;;3.53;;
21032;SDS011;10675;47.976;7.824;2023-02-07T09:17:40;8.77;;;3.73;;
21032;SDS011;10675;47.976;7.824;2023-02-07T09:20:05;7.03;;;3.30;;
21032;SDS011;10675;47.976;7.824;2023-02-07T09:22:31;8.03;;;4.10;;
21032;SDS011;10675;47.976;7.824;2023-02-07T09:25:17;7.20;;;3.53;;
21032;SDS011;10675;47.976;7.824;2023-02-07T09:27:43;5.33;;;3.23;;
21032;SDS011;10675;47.976;7.824;2023-02-07T09:30:08;5.63;;;3.53;;
21032;SDS011;10675;47.976;7.824;2023-02-07T09:32:34;6.43;;;3.70;;
21032;SDS011;10675;47.976;7.824;2023-02-07T09:35:00;7.80;;;3.47;;
21032;SDS011;10675;47.976;7.824;2023-02-07T09:37:25;9.50;;;4.10;;
21032;SDS011;10675;47.976;7.824;2023-02-07T09:39:50;8.97;;;4.50;;
21032;SDS011;10675;47.976;7.824;2023-02-07T09:45:15;5.17;;;3.47;;
21032;SDS011;10675;47.976;7.824;2023-02-07T09:47:43;6.33;;;4.27;;
21032;SDS011;10675;47.976;7.824;2023-02-07T09:53:02;5.27;;;4.10;;
21032;SDS011;10675;47.976;7.824;2023-02-07T09:58:08;5.47;;;3.90;;
21032;SDS011;10675;47.976;7.824;2023-02-07T10:00:39;9.27;;;4.30;;
21032;SDS011;10675;47.976;7.824;2023-02-07T10:03:09;4.73;;;3.57;;
21032;SDS011;10675;47.976;7.824;2023-02-07T10:08:14;6.23;;;3.93;;
21032;SDS011;10675;47.976;7.824;2023-02-07T10:10:43;7.33;;;3.87;;
21032;SDS011;10675;47.976;7.824;2023-02-07T10:13:24;4.07;;;3.67;;
21032;SDS011;10675;47.976;7.824;2023-02-07T10:16:40;5.93;;;4.20;;
21032;SDS011;10675;47.976;7.824;2023-02-07T10:19:12;6.37;;;3.33;;
21032;SDS011;10675;47.976;7.824;2023-02-07T10:21:46;6.63;;;4.17;;
21032;SDS011;10675;47.976;7.824;2023-02-07T10:24:41;7.67;;;4.07;;
21032;SDS011;10675;47.976;7.824;2023-02-07T10:27:40;11.37;;;3.87;;
21032;SDS011;10675;47.976;7.824;2023-02-07T10:30:15;6.53;;;3.80;;
21032;SDS011;10675;47.976;7.824;2023-02-07T10:32:46;7.20;;;3.47;;
21032;SDS011;10675;47.976;7.824;2023-02-07T10:37:55;6.30;;;4.23;;
21032;SDS011;10675;47.976;7.824;2023-02-07T10:43:05;5.60;;;3.83;;
21032;SDS011;10675;47.976;7.824;2023-02-07T10:45:37;7.80;;;4.83;;
21032;SDS011;10675;47.976;7.824;2023-02-07T10:48:12;8.10;;;5.03;;
21032;SDS011;10675;47.976;7.824;2023-02-07T10:50:39;5.73;;;4.30;;
21032;SDS011;10675;47.976;7.824;2023-02-07T10:53:04;6.00;;;3.60;;
21032;SDS011;10675;47.976;7.824;2023-02-07T10:56:03;7.03;;;4.03;;
21032;SDS011;10675;47.976;7.824;2023-02-07T10:58:22;4.83;;;4.10;;
21032;SDS011;10675;47.976;7.824;2023-02-07T11:00:49;5.57;;;3.67;;
21032;SDS011;10675;47.976;7.824;2023-02-07T11:03:17;7.63;;;4.20;;
21032;SDS011;10675;47.976;7.824;2023-02-07T11:05:58;4.57;;;3.80;;
21032;SDS011;10675;47.976;7.824;2023-02-07T11:08:29;6.43;;;3.70;;
21032;SDS011;10675;47.976;7.824;2023-02-07T11:10:58;4.93;;;3.63;;
21032;SDS011;10675;47.976;7.824;2023-02-07T11:13:50;6.10;;;3.00;;
21032;SDS011;10675;47.976;7.824;2023-02-07T11:16:19;5.30;;;3.70;;
21032;SDS011;10675;47.976;7.824;2023-02-07T11:18:54;6.00;;;3.90;;
21032;SDS011;10675;47.976;7.824;2023-02-07T11:23:59;5.50;;;3.90;;
21032;SDS011;10675;47.976;7.824;2023-02-07T11:26:28;6.00;;;3.20;;
21032;SDS011;10675;47.976;7.824;2023-02-07T11:29:14;4.73;;;3.70;;
21032;SDS011;10675;47.976;7.824;2023-02-07T11:31:42;6.87;;;3.97;;
21032;SDS011;10675;47.976;7.824;2023-02-07T11:36:50;7.17;;;3.50;;
21032;SDS011;10675;47.976;7.824;2023-02-07T11:39:17;7.50;;;3.97;;
21032;SDS011;10675;47.976;7.824;2023-02-07T11:41:58;6.70;;;3.90;;
21032;SDS011;10675;47.976;7.824;2023-02-07T11:44:25;5.20;;;3.80;;
21032;SDS011;10675;47.976;7.824;2023-02-07T11:46:52;4.03;;;3.13;;
21032;SDS011;10675;47.976;7.824;2023-02-07T11:51:50;5.63;;;4.30;;
21032;SDS011;10675;47.976;7.824;2023-02-07T11:54:20;7.70;;;3.50;;
21032;SDS011;10675;47.976;7.824;2023-02-07T11:56:48;5.27;;;3.87;;
21032;SDS011;10675;47.976;7.824;2023-02-07T11:59:18;7.77;;;4.27;;
21032;SDS011;10675;47.976;7.824;2023-02-07T12:01:49;5.17;;;3.53;;
21032;SDS011;10675;47.976;7.824;2023-02-07T12:04:19;5.87;;;4.10;;
21032;SDS011;10675;47.976;7.824;2023-02-07T12:07:02;4.83;;;3.33;;
21032;SDS011;10675;47.976;7.824;2023-02-07T12:12:15;5.87;;;3.43;;
21032;SDS011;10675;47.976;7.824;2023-02-07T12:14:53;5.13;;;4.30;;
21032;SDS011;10675;47.976;7.824;2023-02-07T12:17:24;6.23;;;4.53;;
21032;SDS011;10675;47.976;7.824;2023-02-07T12:19:57;8.23;;;5.10;;
21032;SDS011;10675;47.976;7.824;2023-02-07T12:22:38;5.10;;;4.60;;
21032;SDS011;10675;47.976;7.824;2023-02-07T12:25:13;9.57;;;5.27;;
21032;SDS011;10675;47.976;7.824;2023-02-07T12:27:43;6.60;;;4.13;;
21032;SDS011;10675;47.976;7.824;2023-02-07T12:30:14;8.33;;;5.03;;
21032;SDS011;10675;47.976;7.824;2023-02-07T12:32:54;7.80;;;4.53;;
21032;SDS011;10675;47.976;7.824;2023-02-07T12:35:31;8.33;;;5.13;;
21032;SDS011;10675;47.976;7.824;2023-02-07T12:38:02;7.93;;;5.20;;
21032;SDS011;10675;47.976;7.824;2023-02-07T12:43:24;6.73;;;5.10;;
21032;SDS011;10675;47.976;7.824;2023-02-07T12:51:16;12.33;;;5.43;;
21032;SDS011;10675;47.976;7.824;2023-02-07T12:54:09;9.23;;;5.07;;
21032;SDS011;10675;47.976;7.824;2023-02-07T12:59:44;10.67;;;4.73;;
21032;SDS011;10675;47.976;7.824;2023-02-07T13:05:17;7.67;;;4.50;;
21032;SDS011;10675;47.976;7.824;2023-02-07T13:10:43;6.73;;;4.60;;
21032;SDS011;10675;47.976;7.824;2023-02-07T13:18:24;7.00;;;4.90;;
21032;SDS011;10675;47.976;7.824;2023-02-07T13:21:09;8.30;;;5.10;;
21032;SDS011;10675;47.976;7.824;2023-02-07T13:23:47;10.80;;;5.57;;
21032;SDS011;10675;47.976;7.824;2023-02-07T13:26:18;8.43;;;5.40;;
21032;SDS011;10675;47.976;7.824;2023-02-07T13:28:47;7.77;;;5.47;;
21032;SDS011;10675;47.976;7.824;2023-02-07T13:31:16;10.13;;;5.97;;
21032;SDS011;10675;47.976;7.824;2023-02-07T13:33:44;8.03;;;5.23;;
21032;SDS011;10675;47.976;7.824;2023-02-07T13:39:18;9.17;;;5.53;;
21032;SDS011;10675;47.976;7.824;2023-02-07T13:44:30;7.23;;;5.07;;
21032;SDS011;10675;47.976;7.824;2023-02-07T13:47:25;7.77;;;5.23;;
21032;SDS011;10675;47.976;7.824;2023-02-07T13:52:51;7.73;;;5.17;;
21032;SDS011;10675;47.976;7.824;2023-02-07T13:55:38;7.80;;;5.23;;
21032;SDS011;10675;47.976;7.824;2023-02-07T14:01:28;9.07;;;5.33;;
21032;SDS011;10675;47.976;7.824;2023-02-07T14:06:27;7.97;;;5.07;;
21032;SDS011;10675;47.976;7.824;2023-02-07T14:09:16;8.77;;;5.33;;
21032;SDS011;10675;47.976;7.824;2023-02-07T14:11:48;7.60;;;5.50;;
21032;SDS011;10675;47.976;7.824;2023-02-07T14:14:23;10.67;;;6.47;;
21032;SDS011;10675;47.976;7.824;2023-02-07T14:16:54;11.80;;;6.17;;
21032;SDS011;10675;47.976;7.824;2023-02-07T14:30:37;8.70;;;5.20;;
21032;SDS011;10675;47.976;7.824;2023-02-07T14:33:37;6.97;;;5.20;;
21032;SDS011;10675;47.976;7.824;2023-02-07T14:38:38;8.63;;;6.17;;
21032;SDS011;10675;47.976;7.824;2023-02-07T14:41:09;7.70;;;5.70;;
21032;SDS011;10675;47.976;7.824;2023-02-07T14:46:10;8.10;;;5.17;;
21032;SDS011;10675;47.976;7.824;2023-02-07T14:48:45;9.37;;;5.80;;
21032;SDS011;10675;47.976;7.824;2023-02-07T14:59:17;7.33;;;4.90;;
21032;SDS011;10675;47.976;7.824;2023-02-07T15:01:56;7.20;;;5.63;;
21032;SDS011;10675;47.976;7.824;2023-02-07T15:04:42;9.30;;;6.23;;
21032;SDS011;10675;47.976;7.824;2023-02-07T15:07:11;11.70;;;6.07;;
21032;SDS011;10675;47.976;7.824;2023-02-07T15:09:37;7.93;;;5.80;;
21032;SDS011;10675;47.976;7.824;2023-02-07T15:12:04;12.13;;;6.13;;
21032;SDS011;10675;47.976;7.824;2023-02-07T15:14:32;8.80;;;5.57;;
21032;SDS011;10675;47.976;7.824;2023-02-07T15:16:59;9.43;;;5.60;;
21032;SDS011;10675;47.976;7.824;2023-02-07T15:19:28;8.20;;;5.70;;
21032;SDS011;10675;47.976;7.824;2023-02-07T15:22:01;8.20;;;5.83;;
21032;SDS011;10675;47.976;7.824;2023-02-07T15:24:29;7.10;;;5.10;;
21032;SDS011;10675;47.976;7.824;2023-02-07T15:27:17;9.93;;;5.83;;
21032;SDS011;10675;47.976;7.824;2023-02-07T15:29:54;7.93;;;5.47;;
21032;SDS011;10675;47.976;7.824;2023-02-07T15:32:28;8.57;;;6.00;;
21032;SDS011;10675;47.976;7.824;2023-02-07T15:34:57;9.10;;;6.00;;
21032;SDS011;10675;47.976;7.824;2023-02-07T15:37:30;8.73;;;5.80;;
21032;SDS011;10675;47.976;7.824;2023-02-07T15:39:56;7.90;;;5.67;;
21032;SDS011;10675;47.976;7.824;2023-02-07T15:42:22;7.20;;;5.40;;
21032;SDS011;10675;47.976;7.824;2023-02-07T15:44:49;7.63;;;5.47;;
21032;SDS011;10675;47.976;7.824;2023-02-07T15:47:30;8.60;;;5.60;;
21032;SDS011;10675;47.976;7.824;2023-02-07T15:50:18;7.03;;;5.60;;
21032;SDS011;10675;47.976;7.824;2023-02-07T15:52:50;9.00;;;6.03;;
21032;SDS011;10675;47.976;7.824;2023-02-07T15:55:23;8.33;;;5.40;;
21032;SDS011;10675;47.976;7.824;2023-02-07T15:57:56;9.20;;;5.40;;
21032;SDS011;10675;47.976;7.824;2023-02-07T16:00:23;8.93;;;5.97;;
21032;SDS011;10675;47.976;7.824;2023-02-07T16:02:57;6.90;;;5.30;;
21032;SDS011;10675;47.976;7.824;2023-02-07T16:05:26;9.37;;;5.70;;
21032;SDS011;10675;47.976;7.824;2023-02-07T16:07:54;8.13;;;5.53;;
21032;SDS011;10675;47.976;7.824;2023-02-07T16:12:50;7.87;;;5.50;;
21032;SDS011;10675;47.976;7.824;2023-02-07T16:15:37;8.20;;;5.07;;
21032;SDS011;10675;47.976;7.824;2023-02-07T16:18:32;10.37;;;5.53;;
21032;SDS011;10675;47.976;7.824;2023-02-07T16:20:59;8.57;;;5.93;;
21032;SDS011;10675;47.976;7.824;2023-02-07T16:23:25;9.03;;;5.40;;
21032;SDS011;10675;47.976;7.824;2023-02-07T16:25:51;8.87;;;5.60;;
21032;SDS011;10675;47.976;7.824;2023-02-07T16:28:16;6.50;;;4.97;;
21032;SDS011;10675;47.976;7.824;2023-02-07T16:30:42;9.13;;;5.67;;
21032;SDS011;10675;47.976;7.824;2023-02-07T16:33:10;8.47;;;5.17;;
21032;SDS011;10675;47.976;7.824;2023-02-07T16:35:37;9.07;;;5.60;;
21032;SDS011;10675;47.976;7.824;2023-02-07T16:38:02;10.90;;;4.97;;
21032;SDS011;10675;47.976;7.824;2023-02-07T16:40:28;12.33;;;6.00;;
21032;SDS011;10675;47.976;7.824;2023-02-07T16:42:54;8.27;;;5.57;;
21032;SDS011;10675;47.976;7.824;2023-02-07T16:45:22;8.33;;;5.20;;
21032;SDS011;10675;47.976;7.824;2023-02-07T16:47:49;8.10;;;5.57;;
21032;SDS011;10675;47.976;7.824;2023-02-07T16:50:20;8.97;;;5.30;;
21032;SDS011;10675;47.976;7.824;2023-02-07T16:52:54;10.80;;;5.53;;
21032;SDS011;10675;47.976;7.824;2023-02-07T16:55:26;8.87;;;5.33;;
21032;SDS011;10675;47.976;7.824;2023-02-07T16:57:52;8.27;;;6.20;;
21032;SDS011;10675;47.976;7.824;2023-02-07T17:00:19;11.10;;;5.63;;
21032;SDS011;10675;47.976;7.824;2023-02-07T17:02:47;9.57;;;5.93;;